Time;durP1;ratioP1;P1;durP2;ratioP2;P2;SDS_P1;SDS_P2;PMS_P1;PMS_P2;Temp;Humidity;BMP_temperature;BMP_pressure;BME280_temperature;BME280_humidity;BME280_pressure;Samples;Min_cycle;Max_cycle;Signal;HPM_P1;HPM_P2
2021/10/15 00:00:17;;;;;;;3.45;2.08;;;18.50;78.20;;;;;;5073222;28;20031;-84
2021/10/15 00:02:43;;;;;;;3.85;2.08;;;18.50;78.20;;;;;;5073363;28;20021;-84
2021/10/15 00:05:09;;;;;;;4.00;2.05;;;18.50;78.20;;;;;;5054941;28;20484;-83
2021/10/15 00:07:35;;;;;;;4.32;2.28;;;18.50;78.20;;;;;;5072743;28;20029;-83
2021/10/15 00:10:01;;;;;;;3.50;1.80;;;18.50;78.20;;;;;;5054847;28;20028;-84
2021/10/15 00:12:27;;;;;;;5.38;2.28;;;18.40;78.10;;;;;;5072585;28;20103;-83
2021/10/15 00:14:52;;;;;;;6.22;2.17;;;18.40;78.10;;;;;;5072957;28;20052;-84
2021/10/15 00:17:18;;;;;;;4.10;2.10;;;18.50;78.20;;;;;;5072491;28;20073;-84
2021/10/15 00:19:44;;;;;;;2.97;1.95;;;18.40;78.10;;;;;;5072976;28;20539;-84
2021/10/15 00:22:10;;;;;;;4.47;2.35;;;18.40;78.10;;;;;;5072474;28;20442;-83
2021/10/15 00:24:35;;;;;;;3.65;1.70;;;18.40;78.10;;;;;;5072169;28;20013;-84
2021/10/15 00:27:01;;;;;;;3.80;2.13;;;18.40;78.10;;;;;;5072762;28;20070;-85
2021/10/15 00:29:26;;;;;;;3.25;1.83;;;18.40;78.10;;;;;;5072235;28;20021;-84
2021/10/15 00:31:53;;;;;;;3.38;1.80;;;18.40;78.10;;;;;;5072563;28;20034;-84
2021/10/15 00:34:19;;;;;;;2.85;1.65;;;18.40;78.10;;;;;;5054112;28;20024;-84
2021/10/15 00:36:45;;;;;;;4.35;2.45;;;18.40;78.10;;;;;;5072084;28;20380;-85
2021/10/15 00:39:11;;;;;;;5.07;2.35;;;18.40;79.00;;;;;;5054363;28;20567;-85
2021/10/15 00:41:36;;;;;;;3.03;1.90;;;18.40;78.20;;;;;;5071954;28;20052;-86
2021/10/15 00:44:07;;;;;;;3.65;1.70;;;18.30;78.20;;;;;;5072148;28;20513;-85
2021/10/15 00:46:34;;;;;;;5.00;1.80;;;18.30;78.10;;;;;;5071737;28;20029;-86
2021/10/15 00:49:05;;;;;;;3.83;1.90;;;18.30;78.10;;;;;;5071944;28;20025;-84
2021/10/15 00:51:32;;;;;;;4.50;2.10;;;18.30;78.10;;;;;;5071450;28;20025;-85
2021/10/15 00:53:58;;;;;;;3.90;2.10;;;18.30;78.10;;;;;;5071692;28;20024;-84
2021/10/15 00:56:24;;;;;;;3.33;2.25;;;18.30;78.10;;;;;;5071593;28;20396;-83
2021/10/15 00:58:50;;;;;;;3.28;1.70;;;18.30;78.10;;;;;;5072118;28;20032;-84
2021/10/15 01:01:16;;;;;;;3.67;1.88;;;18.30;78.10;;;;;;5072036;28;20031;-84
2021/10/15 01:03:42;;;;;;;3.50;1.83;;;18.30;78.10;;;;;;5071334;28;20507;-84
2021/10/15 01:06:08;;;;;;;2.97;1.85;;;18.30;78.10;;;;;;5071863;28;20539;-84
2021/10/15 01:08:41;;;;;;;4.10;1.88;;;18.30;78.10;;;;;;5071571;28;20021;-84
2021/10/15 01:11:07;;;;;;;4.13;1.70;;;18.20;78.00;;;;;;5053531;28;20488;-84
2021/10/15 01:13:33;;;;;;;2.08;1.33;;;18.20;77.90;;;;;;5071290;28;20033;-84
2021/10/15 01:16:10;;;;;;;4.00;2.17;;;18.30;78.00;;;;;;5071547;28;20099;-84
2021/10/15 01:18:38;;;;;;;4.68;1.80;;;18.20;78.00;;;;;;5071316;28;20040;-84
2021/10/15 01:21:08;;;;;;;4.82;1.98;;;18.20;78.00;;;;;;5071626;28;20063;-84
2021/10/15 01:23:34;;;;;;;5.03;1.88;;;18.30;78.00;;;;;;5071506;28;20020;-84
2021/10/15 01:26:00;;;;;;;3.58;1.88;;;18.20;78.00;;;;;;5071697;28;20024;-85
2021/10/15 01:28:27;;;;;;;5.70;2.20;;;18.20;78.00;;;;;;5071043;28;20549;-85
2021/10/15 01:30:53;;;;;;;3.58;1.73;;;18.20;77.90;;;;;;5071530;28;20059;-85
2021/10/15 01:33:20;;;;;;;3.67;2.05;;;18.20;78.00;;;;;;5071177;28;20024;-84
2021/10/15 01:35:45;;;;;;;2.85;1.75;;;18.20;77.90;;;;;;5071646;28;20039;-85
2021/10/15 01:38:11;;;;;;;3.22;1.90;;;18.20;78.00;;;;;;5053265;28;20036;-85
2021/10/15 01:40:38;;;;;;;3.03;1.95;;;18.20;78.00;;;;;;5071048;28;20497;-86
2021/10/15 01:43:04;;;;;;;3.30;1.80;;;18.10;78.00;;;;;;5053273;28;20120;-86
2021/10/15 01:45:31;;;;;;;2.67;1.85;;;18.20;78.00;;;;;;5071075;28;20021;-86
2021/10/15 01:47:58;;;;;;;3.25;1.90;;;18.20;78.00;;;;;;5051896;28;20021;-86
2021/10/15 01:50:26;;;;;;;3.55;2.15;;;18.10;78.00;;;;;;5070829;28;20025;-86
2021/10/15 01:52:52;;;;;;;3.72;1.73;;;18.20;78.00;;;;;;5071053;28;20083;-85
2021/10/15 01:55:18;;;;;;;4.22;1.80;;;18.20;78.00;;;;;;5053049;28;20055;-86
2021/10/15 01:57:44;;;;;;;4.20;2.05;;;18.10;77.90;;;;;;5071243;28;20174;-85
2021/10/15 02:00:11;;;;;;;3.38;1.30;;;18.10;77.90;;;;;;5071188;28;20506;-86
2021/10/15 02:02:37;;;;;;;4.22;2.28;;;18.10;77.90;;;;;;5070934;28;20063;-85
2021/10/15 02:05:06;;;;;;;3.72;1.63;;;18.10;77.90;;;;;;5071282;28;20060;-86
2021/10/15 02:07:31;;;;;;;3.28;1.80;;;18.10;77.90;;;;;;5071014;28;20032;-85
2021/10/15 02:09:57;;;;;;;2.78;1.85;;;18.10;77.90;;;;;;5071357;28;20028;-85
2021/10/15 02:12:22;;;;;;;3.53;1.80;;;18.10;77.90;;;;;;5070640;28;20513;-86
2021/10/15 02:14:48;;;;;;;4.05;1.85;;;18.10;77.90;;;;;;5071230;28;20028;-86
2021/10/15 02:17:14;;;;;;;4.93;2.33;;;18.10;77.90;;;;;;5071157;28;20407;-85
2021/10/15 02:19:40;;;;;;;2.95;1.80;;;18.10;77.90;;;;;;5070646;28;20063;-85
2021/10/15 02:22:06;;;;;;;3.38;1.88;;;18.10;77.80;;;;;;5070829;28;20028;-85
2021/10/15 02:24:31;;;;;;;3.90;1.75;;;18.10;77.80;;;;;;5070753;28;20070;-85
2021/10/15 02:26:57;;;;;;;2.25;1.30;;;18.10;77.80;;;;;;5070710;28;20099;-85
2021/10/15 02:29:23;;;;;;;2.42;1.52;;;18.00;77.70;;;;;;5052745;28;20116;-85
2021/10/15 02:31:48;;;;;;;3.45;1.58;;;18.00;77.70;;;;;;5052492;28;20419;-85
2021/10/15 02:34:18;;;;;;;2.63;1.48;;;18.00;77.70;;;;;;5071196;28;20159;-85
2021/10/15 02:36:44;;;;;;;3.58;1.50;;;18.00;77.70;;;;;;5071158;28;20075;-84
2021/10/15 02:39:10;;;;;;;4.05;1.98;;;18.00;77.70;;;;;;5070536;28;20013;-84
2021/10/15 02:41:39;;;;;;;3.67;2.00;;;18.00;77.70;;;;;;5070716;28;20103;-85
2021/10/15 02:44:09;;;;;;;4.30;2.00;;;18.00;77.70;;;;;;5071759;28;20519;-85
2021/10/15 02:46:35;;;;;;;3.13;1.70;;;18.00;77.70;;;;;;5071387;28;20036;-86
2021/10/15 02:49:02;;;;;;;3.58;1.90;;;18.00;77.70;;;;;;5071720;28;20051;-85
2021/10/15 02:51:27;;;;;;;3.63;1.60;;;18.00;77.70;;;;;;5071012;28;20017;-85
2021/10/15 02:53:53;;;;;;;3.20;1.75;;;18.00;77.60;;;;;;5053030;28;20024;-85
2021/10/15 02:56:19;;;;;;;3.40;1.50;;;18.00;77.60;;;;;;5070391;28;20100;-86
2021/10/15 02:58:44;;;;;;;3.10;1.80;;;18.00;77.60;;;;;;5054310;28;20064;-86
2021/10/15 03:01:10;;;;;;;2.90;1.67;;;18.00;77.60;;;;;;5074029;28;20028;-85
2021/10/15 03:03:36;;;;;;;3.80;1.77;;;18.00;77.60;;;;;;5073859;28;20414;-86
2021/10/15 03:06:01;;;;;;;4.38;1.88;;;18.00;77.60;;;;;;5074058;28;20424;-84
2021/10/15 03:08:27;;;;;;;3.22;2.03;;;18.00;77.60;;;;;;5074103;28;20016;-84
2021/10/15 03:10:53;;;;;;;3.03;1.50;;;17.90;77.50;;;;;;5074483;28;20036;-84
2021/10/15 03:13:19;;;;;;;3.55;1.40;;;17.90;77.50;;;;;;5073505;28;20033;-84
2021/10/15 03:15:45;;;;;;;2.92;1.85;;;17.90;77.50;;;;;;5074737;28;20024;-85
2021/10/15 03:18:12;;;;;;;3.70;2.00;;;17.90;77.50;;;;;;5075207;28;20110;-85
2021/10/15 03:20:38;;;;;;;2.65;1.50;;;17.90;77.50;;;;;;5073814;28;20320;-86
2021/10/15 03:23:04;;;;;;;3.22;1.85;;;17.90;77.50;;;;;;5074060;28;20030;-85
2021/10/15 03:25:30;;;;;;;3.40;1.85;;;17.90;77.50;;;;;;5072692;28;20020;-85
2021/10/15 03:27:56;;;;;;;2.70;1.55;;;17.90;77.50;;;;;;5073922;28;20078;-85
2021/10/15 03:30:22;;;;;;;2.83;1.90;;;17.90;77.50;;;;;;5073651;28;20028;-84
2021/10/15 03:32:48;;;;;;;2.58;1.52;;;17.90;77.50;;;;;;5073981;28;20033;-85
2021/10/15 03:35:13;;;;;;;3.60;1.80;;;17.90;77.50;;;;;;5073767;28;20052;-85
2021/10/15 03:37:39;;;;;;;2.92;1.77;;;17.90;77.50;;;;;;5073381;28;20443;-85
2021/10/15 03:40:06;;;;;;;2.90;1.52;;;17.90;77.50;;;;;;5074109;28;20031;-85
2021/10/15 03:42:31;;;;;;;2.65;1.52;;;17.90;77.50;;;;;;5074669;28;20024;-85
2021/10/15 03:44:57;;;;;;;2.90;1.70;;;17.80;77.40;;;;;;5074053;28;20078;-84
2021/10/15 03:47:23;;;;;;;2.47;1.63;;;17.90;77.40;;;;;;5055429;28;20028;-83
2021/10/15 03:49:49;;;;;;;2.95;1.45;;;17.90;77.50;;;;;;5073335;28;20023;-84
2021/10/15 03:52:14;;;;;;;2.60;1.50;;;17.80;77.40;;;;;;5073307;28;20033;-84
2021/10/15 03:54:41;;;;;;;3.25;1.63;;;17.90;77.50;;;;;;5073064;28;20098;-84
2021/10/15 03:57:07;;;;;;;4.95;2.03;;;17.90;77.40;;;;;;5073096;28;20024;-84
2021/10/15 03:59:33;;;;;;;3.13;1.73;;;17.90;77.40;;;;;;5073099;28;20021;-85
2021/10/15 04:01:58;;;;;;;2.70;1.92;;;17.80;77.30;;;;;;5073344;28;20112;-85
2021/10/15 04:04:24;;;;;;;3.10;1.70;;;17.80;77.40;;;;;;5073813;28;20464;-84
2021/10/15 04:06:50;;;;;;;3.13;1.58;;;17.80;77.30;;;;;;5073626;28;20028;-84
2021/10/15 04:09:15;;;;;;;3.13;1.98;;;17.80;77.30;;;;;;5055461;28;20025;-86
2021/10/15 04:11:41;;;;;;;2.35;1.35;;;17.80;77.30;;;;;;5053739;28;20029;-85
2021/10/15 04:14:06;;;;;;;3.30;1.42;;;17.80;77.30;;;;;;5072758;28;20029;-86
2021/10/15 04:16:33;;;;;;;3.33;1.83;;;17.80;77.30;;;;;;5072411;28;20037;-85
2021/10/15 04:18:59;;;;;;;5.22;1.85;;;17.80;77.40;;;;;;5072863;28;20024;-85
2021/10/15 04:21:25;;;;;;;3.20;1.52;;;17.80;77.40;;;;;;5054522;28;20021;-85
2021/10/15 04:23:50;;;;;;;2.72;1.50;;;17.80;77.30;;;;;;5072608;28;20041;-85
2021/10/15 04:26:16;;;;;;;3.10;1.52;;;17.80;77.30;;;;;;5072330;28;20023;-85
2021/10/15 04:28:42;;;;;;;3.83;1.85;;;17.70;77.30;;;;;;5072496;28;20028;-84
2021/10/15 04:31:07;;;;;;;3.47;1.67;;;17.80;77.30;;;;;;5072420;28;20086;-86
2021/10/15 04:33:33;;;;;;;2.60;1.42;;;17.80;77.30;;;;;;5072172;28;20021;-86
2021/10/15 04:35:58;;;;;;;2.33;1.60;;;17.80;77.30;;;;;;5072173;28;20123;-86
2021/10/15 04:38:24;;;;;;;4.10;1.85;;;17.80;77.20;;;;;;5071943;28;20056;-86
2021/10/15 04:40:49;;;;;;;4.60;2.10;;;17.80;77.30;;;;;;5072413;28;20028;-86
2021/10/15 04:43:15;;;;;;;3.85;1.80;;;17.80;77.30;;;;;;5054355;28;20023;-86
2021/10/15 04:45:41;;;;;;;6.93;1.60;;;17.70;77.20;;;;;;5072243;28;20032;-86
2021/10/15 04:48:06;;;;;;;3.00;1.67;;;17.70;77.30;;;;;;5071999;28;20559;-86
2021/10/15 04:50:36;;;;;;;2.85;1.70;;;17.80;77.30;;;;;;5071927;28;20029;-86
2021/10/15 04:53:07;;;;;;;2.35;1.30;;;17.80;77.30;;;;;;5071967;28;20492;-87
2021/10/15 04:55:33;;;;;;;3.10;1.60;;;17.80;77.30;;;;;;5071630;28;20055;-87
2021/10/15 04:58:00;;;;;;;2.60;1.70;;;17.80;77.30;;;;;;5072732;28;20028;-86
2021/10/15 05:00:27;;;;;;;2.25;1.45;;;17.80;77.40;;;;;;5071746;28;20530;-86
2021/10/15 05:02:53;;;;;;;3.67;1.63;;;17.80;77.40;;;;;;5072097;28;20017;-86
2021/10/15 05:05:22;;;;;;;4.20;1.80;;;17.80;77.50;;;;;;5071811;28;20063;-86
2021/10/15 05:07:48;;;;;;;2.55;1.50;;;17.80;77.60;;;;;;5072173;28;20024;-89
2021/10/15 05:10:14;;;;;;;2.40;1.73;;;17.80;77.60;;;;;;5070201;28;20546;-90
2021/10/15 05:12:40;;;;;;;2.97;1.60;;;17.80;77.70;;;;;;5071449;28;20552;-89
2021/10/15 05:15:10;;;;;;;3.42;1.60;;;17.90;77.70;;;;;;5053935;28;20035;-87
2021/10/15 05:17:37;;;;;;;3.00;1.90;;;17.90;77.70;;;;;;5072151;28;20495;-90
2021/10/15 05:20:05;;;;;;;3.47;1.60;;;17.90;77.80;;;;;;5071874;28;20055;-90
2021/10/15 05:22:31;;;;;;;3.20;1.85;;;17.90;77.90;;;;;;5072130;28;20029;-88
2021/10/15 05:24:56;;;;;;;3.75;1.45;;;17.90;77.80;;;;;;5072766;28;20056;-91
2021/10/15 05:27:22;;;;;;;2.47;1.40;;;18.00;77.90;;;;;;5055036;28;20445;-86
2021/10/15 05:29:48;;;;;;;3.30;1.77;;;18.00;77.90;;;;;;5074795;28;20027;-89
2021/10/15 05:32:17;;;;;;;3.35;1.65;;;18.00;77.90;;;;;;5074152;28;20028;-89
2021/10/15 05:34:44;;;;;;;3.60;1.88;;;18.10;77.90;;;;;;5054425;28;20020;-87
2021/10/15 05:37:10;;;;;;;4.07;1.40;;;18.10;77.90;;;;;;5072121;28;20127;-87
2021/10/15 05:39:36;;;;;;;2.20;1.20;;;18.20;78.00;;;;;;5071522;28;20100;-89
2021/10/15 05:42:02;;;;;;;2.72;1.65;;;18.20;77.90;;;;;;5071476;28;20028;-89
2021/10/15 05:44:28;;;;;;;3.40;1.50;;;18.20;78.00;;;;;;5054362;28;20024;-89
2021/10/15 05:46:54;;;;;;;3.67;1.88;;;18.20;77.90;;;;;;5071178;28;20033;-87
2021/10/15 05:49:19;;;;;;;2.35;1.45;;;18.20;77.90;;;;;;5071281;28;20021;-89
2021/10/15 05:51:48;;;;;;;2.30;1.23;;;18.30;77.90;;;;;;5071206;28;20108;-87
2021/10/15 05:54:19;;;;;;;2.60;1.40;;;18.30;77.90;;;;;;5071276;28;20017;-86
2021/10/15 05:56:59;;;;;;;1.70;1.10;;;18.30;77.90;;;;;;5071085;28;20123;-87
2021/10/15 05:59:25;;;;;;;3.45;1.73;;;18.30;77.80;;;;;;5070771;28;20062;-86
2021/10/15 06:01:54;;;;;;;2.30;1.73;;;18.40;77.80;;;;;;5071233;28;20032;-85
2021/10/15 06:15:34;;;;;;;2.53;1.65;;;18.50;77.50;;;;;;5070967;28;20469;-85
2021/10/15 06:18:09;;;;;;;3.13;1.48;;;18.50;77.50;;;;;;5070953;28;20032;-89
2021/10/15 06:20:36;;;;;;;2.72;1.58;;;18.60;77.60;;;;;;5075896;28;20017;-87
2021/10/15 06:23:02;;;;;;;3.20;1.60;;;18.60;77.60;;;;;;5070439;28;20035;-88
2021/10/15 06:25:28;;;;;;;3.80;0.90;;;18.60;77.70;;;;;;5070551;28;20021;-85
2021/10/15 06:27:58;;;;;;;5.00;1.70;;;18.60;77.80;;;;;;5069846;28;20032;-86
2021/10/15 06:30:24;;;;;;;6.43;2.15;;;18.60;77.80;;;;;;5070517;28;20020;-85
2021/10/15 06:32:50;;;;;;;4.95;2.78;;;18.70;77.90;;;;;;5070999;28;20033;-83
2021/10/15 06:35:15;;;;;;;4.22;2.58;;;18.70;77.70;;;;;;5074042;28;20017;-86
2021/10/15 06:37:41;;;;;;;6.95;2.92;;;18.70;77.70;;;;;;5074196;28;20102;-85
2021/10/15 06:40:07;;;;;;;7.65;4.00;;;18.70;77.90;;;;;;5074525;28;20450;-84
2021/10/15 06:42:32;;;;;;;11.55;4.40;;;18.70;78.30;;;;;;5073996;28;20067;-87
2021/10/15 06:44:59;;;;;;;13.25;6.07;;;18.70;78.60;;;;;;5074595;28;20056;-86
2021/10/15 06:47:26;;;;;;;10.73;4.90;;;18.70;78.30;;;;;;5074178;28;20449;-85
2021/10/15 06:49:52;;;;;;;9.60;5.38;;;18.70;79.10;;;;;;5074495;28;20013;-89
2021/10/15 06:52:18;;;;;;;8.27;4.43;;;18.70;79.00;;;;;;5074082;28;20036;-86
2021/10/15 06:54:43;;;;;;;9.50;4.15;;;18.70;79.20;;;;;;5074152;28;20504;-86
2021/10/15 06:57:09;;;;;;;6.72;3.88;;;18.70;79.20;;;;;;5075084;28;20074;-85
2021/10/15 06:59:35;;;;;;;8.15;3.85;;;18.80;79.10;;;;;;5083496;28;20020;-83
2021/10/15 07:02:00;;;;;;;7.30;3.90;;;18.70;79.00;;;;;;5078658;28;20027;-85
2021/10/15 07:04:26;;;;;;;8.95;4.03;;;18.80;78.80;;;;;;5080786;28;20103;-84
2021/10/15 07:06:52;;;;;;;8.60;3.55;;;18.70;78.60;;;;;;5073982;28;20032;-84
2021/10/15 07:09:17;;;;;;;7.20;3.80;;;18.80;78.70;;;;;;5055685;28;20035;-81
2021/10/15 07:11:44;;;;;;;8.85;4.20;;;18.80;78.70;;;;;;5073879;28;20017;-83
2021/10/15 07:14:10;;;;;;;7.10;3.75;;;18.60;77.80;;;;;;5054977;28;20032;-81
2021/10/15 07:16:36;;;;;;;6.10;3.40;;;18.70;78.60;;;;;;5073732;28;20032;-87
2021/10/15 07:19:01;;;;;;;7.13;3.72;;;18.70;78.50;;;;;;5078055;28;20032;-85
2021/10/15 07:21:27;;;;;;;7.25;4.10;;;18.70;78.50;;;;;;5079475;28;20033;-85
2021/10/15 07:23:54;;;;;;;7.88;3.72;;;18.70;78.60;;;;;;5074171;28;20048;-85
2021/10/15 07:26:20;;;;;;;8.15;3.22;;;18.70;78.60;;;;;;5073476;28;20423;-90
2021/10/15 07:28:45;;;;;;;6.55;3.38;;;18.70;78.00;;;;;;5073462;28;20095;-87
2021/10/15 07:31:11;;;;;;;7.72;3.60;;;18.70;78.60;;;;;;5073196;28;20128;-88
2021/10/15 07:33:37;;;;;;;6.47;3.53;;;18.70;78.00;;;;;;5073631;28;20380;-83
2021/10/15 07:36:03;;;;;;;8.05;3.35;;;18.70;78.60;;;;;;5073642;28;20385;-85
2021/10/15 07:38:28;;;;;;;7.70;3.05;;;18.70;78.60;;;;;;5073162;28;20048;-88
2021/10/15 07:40:54;;;;;;;5.80;3.33;;;18.70;78.50;;;;;;5073732;28;20031;-88
2021/10/15 07:43:20;;;;;;;6.88;3.28;;;18.70;78.40;;;;;;5054999;28;20124;-85
2021/10/15 07:45:46;;;;;;;5.20;3.10;;;18.70;78.30;;;;;;5073103;28;20028;-87
2021/10/15 07:48:11;;;;;;;11.35;5.35;;;18.70;78.20;;;;;;5072593;28;20040;-84
2021/10/15 07:50:37;;;;;;;7.32;5.25;;;18.70;78.50;;;;;;5073030;28;20078;-90
2021/10/15 07:53:03;;;;;;;5.45;4.15;;;18.70;78.60;;;;;;5073262;28;20025;-87
2021/10/15 07:55:28;;;;;;;6.47;3.90;;;18.80;78.50;;;;;;5072976;28;20400;-85
2021/10/15 07:57:54;;;;;;;5.10;3.92;;;18.80;78.40;;;;;;5073152;28;20507;-85
2021/10/15 08:00:20;;;;;;;5.90;3.53;;;18.90;78.50;;;;;;5072680;28;20024;-87
2021/10/15 08:02:46;;;;;;;6.53;3.33;;;18.90;78.50;;;;;;5071310;28;20554;-87
2021/10/15 08:05:16;;;;;;;6.40;3.13;;;19.00;78.50;;;;;;5072499;28;20032;-85
2021/10/15 08:07:42;;;;;;;4.30;3.10;;;19.00;78.40;;;;;;5054812;28;20035;-85
2021/10/15 08:10:09;;;;;;;6.40;3.00;;;19.10;78.30;;;;;;5072945;28;20025;-84
2021/10/15 08:12:36;;;;;;;5.20;3.28;;;19.10;78.20;;;;;;5073014;28;20029;-87
2021/10/15 08:15:03;;;;;;;5.18;2.80;;;19.20;78.10;;;;;;5073149;28;20035;-86
2021/10/15 08:17:29;;;;;;;4.63;2.58;;;19.20;78.00;;;;;;5071979;28;20020;-83
2021/10/15 08:19:55;;;;;;;3.72;2.65;;;19.30;77.90;;;;;;5073150;28;20028;-88
2021/10/15 08:22:20;;;;;;;6.60;2.28;;;19.30;77.70;;;;;;5072383;28;20050;-88
2021/10/15 08:24:46;;;;;;;3.88;2.22;;;19.40;77.50;;;;;;5072494;28;20527;-87
2021/10/15 08:27:12;;;;;;;5.57;2.33;;;19.50;77.50;;;;;;5071475;28;20037;-87
2021/10/15 08:29:38;;;;;;;4.15;2.25;;;19.50;77.20;;;;;;5072052;28;20036;-86
2021/10/15 08:32:06;;;;;;;5.10;2.22;;;19.60;77.30;;;;;;5084542;28;20025;-88
2021/10/15 08:34:31;;;;;;;9.55;2.35;;;19.70;77.30;;;;;;5071645;28;20113;-88
2021/10/15 08:36:57;;;;;;;4.75;2.20;;;19.70;77.10;;;;;;5085724;28;20475;-88
2021/10/15 08:39:26;;;;;;;5.20;2.10;;;19.80;76.90;;;;;;5091875;28;20406;-87
2021/10/15 08:41:53;;;;;;;3.20;1.90;;;19.80;76.80;;;;;;5072394;28;20021;-89
2021/10/15 08:44:18;;;;;;;2.85;1.75;;;19.90;76.70;;;;;;5072161;28;20021;-86
2021/10/15 08:46:44;;;;;;;4.55;1.95;;;20.00;76.60;;;;;;5071926;28;20074;-88
2021/10/15 08:49:10;;;;;;;8.05;2.95;;;20.00;76.50;;;;;;5072273;28;20020;-86
2021/10/15 08:51:37;;;;;;;5.95;3.03;;;20.20;76.70;;;;;;5072085;28;20024;-88
2021/10/15 08:54:04;;;;;;;9.52;2.65;;;20.20;76.80;;;;;;5054280;28;20027;-88
2021/10/15 08:56:35;;;;;;;9.70;2.92;;;20.30;76.70;;;;;;5071507;28;20024;-85
2021/10/15 08:59:04;;;;;;;12.93;5.75;;;20.40;76.50;;;;;;5072342;28;20037;-85
2021/10/15 09:01:39;;;;;;;19.13;6.82;;;;;;;;;;5071486;28;20111;-83
2021/10/15 09:04:05;;;;;;;13.18;5.85;;;20.50;77.30;;;;;;5071617;28;20024;-84
2021/10/15 09:06:35;;;;;;;15.70;5.78;;;;;;;;;;5053613;28;20082;-84
2021/10/15 09:09:01;;;;;;;11.98;6.82;;;20.60;78.00;;;;;;5071793;28;20028;-83
2021/10/15 09:11:33;;;;;;;18.05;8.15;;;20.60;77.70;;;;;;5071167;28;20392;-83
2021/10/15 09:14:22;;;;;;;22.50;9.25;;;;;;;;;;5071545;28;20079;-85
2021/10/15 09:16:52;;;;;;;13.27;7.20;;;;;;;;;;5061031;28;20111;-84
2021/10/15 09:19:30;;;;;;;11.82;7.60;;;20.70;78.20;;;;;;5071236;28;20025;-81
2021/10/15 09:22:21;;;;;;;10.07;6.68;;;20.90;78.20;;;;;;5071237;28;20024;-80
2021/10/15 09:24:52;;;;;;;11.40;5.50;;;;;;;;;;5071434;28;20029;-79
2021/10/15 09:27:24;;;;;;;11.98;5.78;;;20.90;78.00;;;;;;5070932;28;20025;-79
2021/10/15 09:30:14;;;;;;;11.63;5.18;;;21.10;77.50;;;;;;5071195;28;20427;-79
2021/10/15 09:32:51;;;;;;;10.18;4.75;;;21.10;77.20;;;;;;5071156;28;20048;-79
2021/10/15 09:35:22;;;;;;;6.88;4.22;;;21.20;77.20;;;;;;5070985;28;20103;-78
2021/10/15 09:37:53;;;;;;;11.20;4.57;;;21.20;77.20;;;;;;5070928;28;20025;-81
2021/10/15 09:40:21;;;;;;;9.18;3.70;;;21.30;77.00;;;;;;5078110;28;20093;-81
2021/10/15 09:42:50;;;;;;;9.75;3.95;;;21.30;76.50;;;;;;5091081;28;20480;-81
2021/10/15 09:45:31;;;;;;;8.15;4.55;;;21.40;76.40;;;;;;5091205;28;20078;-81
2021/10/15 09:47:59;;;;;;;7.28;3.42;;;21.40;76.00;;;;;;5091353;28;20016;-82
2021/10/15 09:50:27;;;;;;;7.55;3.20;;;21.50;75.80;;;;;;5081361;28;20482;-80
2021/10/15 09:52:55;;;;;;;6.70;3.28;;;21.50;75.70;;;;;;5070845;28;20441;-80
2021/10/15 09:55:30;;;;;;;7.55;3.40;;;21.50;75.50;;;;;;5070706;28;20048;-79
2021/10/15 09:58:07;;;;;;;5.97;3.05;;;21.50;75.50;;;;;;5070971;28;20070;-81
2021/10/15 10:00:34;;;;;;;6.20;2.70;;;21.50;75.30;;;;;;5071139;28;20060;-80
2021/10/15 10:03:01;;;;;;;6.07;2.90;;;21.50;75.30;;;;;;5071135;28;20027;-81
2021/10/15 10:05:27;;;;;;;8.35;2.67;;;21.60;75.30;;;;;;5070925;28;20028;-86
2021/10/15 10:07:54;;;;;;;3.95;2.63;;;21.60;75.60;;;;;;5070843;28;20542;-83
2021/10/15 10:10:32;;;;;;;4.28;2.65;;;21.60;75.50;;;;;;5056801;28;20050;-83
2021/10/15 10:12:58;;;;;;;3.75;1.98;;;21.70;75.60;;;;;;5074715;28;20033;-83
2021/10/15 10:15:29;;;;;;;5.28;2.10;;;21.70;75.40;;;;;;5074776;28;20059;-83
2021/10/15 10:18:44;;;;;;;5.35;2.33;;;21.70;75.10;;;;;;5074817;28;20056;-84
2021/10/15 10:21:04;;;;;;;5.32;2.30;;;21.70;75.00;;;;;;5071474;28;20037;-85
2021/10/15 10:24:03;;;;;;;7.25;2.00;;;21.70;75.00;;;;;;5074797;28;20025;-87
2021/10/15 10:26:41;;;;;;;5.15;2.30;;;21.70;74.90;;;;;;5051061;28;20033;-80
2021/10/15 10:29:07;;;;;;;6.00;2.35;;;21.70;74.80;;;;;;5074823;28;20025;-86
2021/10/15 10:31:34;;;;;;;9.20;2.35;;;21.70;75.20;;;;;;5074733;28;20020;-87
2021/10/15 10:34:05;;;;;;;7.88;2.85;;;21.70;74.80;;;;;;5074628;28;20032;-88
2021/10/15 10:36:34;;;;;;;4.85;1.70;;;21.70;75.10;;;;;;5074733;28;20039;-90
2021/10/15 10:39:18;;;;;;;4.28;1.77;;;21.80;75.00;;;;;;5056409;28;20040;-87
2021/10/15 10:42:03;;;;;;;6.45;2.13;;;21.80;74.60;;;;;;5074515;28;20032;-87
2021/10/15 10:44:29;;;;;;;7.10;2.30;;;21.70;74.50;;;;;;5073936;28;20120;-86
2021/10/15 10:47:15;;;;;;;5.15;1.80;;;21.70;74.50;;;;;;5056527;28;20024;-84
2021/10/15 10:49:43;;;;;;;3.58;1.75;;;21.60;74.50;;;;;;5074319;28;20032;-81
2021/10/15 10:52:18;;;;;;;5.50;2.25;;;21.60;74.40;;;;;;5069373;28;20123;-82
2021/10/15 10:54:46;;;;;;;3.88;1.25;;;21.60;74.60;;;;;;5094589;28;20066;-82
2021/10/15 10:57:18;;;;;;;3.53;1.58;;;21.60;74.60;;;;;;5094236;28;20365;-80
2021/10/15 10:59:44;;;;;;;5.93;1.85;;;21.50;74.60;;;;;;5094384;28;20024;-82
2021/10/15 11:02:10;;;;;;;6.05;1.73;;;21.50;74.70;;;;;;5094417;28;20419;-81
2021/10/15 11:04:40;;;;;;;3.22;1.58;;;21.50;74.70;;;;;;5089769;28;20032;-84
2021/10/15 11:07:15;;;;;;;4.20;1.52;;;21.40;75.40;;;;;;5060162;28;20025;-84
2021/10/15 11:09:48;;;;;;;;;;;21.40;74.80;;;;;;5074320;28;20078;-84
2021/10/15 11:12:18;;;;;;;7.95;1.95;;;21.40;74.80;;;;;;5055663;28;20006;-84
2021/10/15 11:14:55;;;;;;;3.65;1.60;;;21.40;74.80;;;;;;5074076;28;20077;-86
2021/10/15 11:17:25;;;;;;;3.10;1.60;;;21.40;74.70;;;;;;5073172;28;20044;-89
2021/10/15 11:20:07;;;;;;;5.10;1.95;;;21.30;75.90;;;;;;5072017;28;20176;-86
2021/10/15 11:22:33;;;;;;;5.35;1.80;;;21.30;76.60;;;;;;5072302;28;20052;-89
2021/10/15 11:24:59;;;;;;;4.55;1.88;;;21.30;77.20;;;;;;5076407;28;20075;-89
2021/10/15 11:27:25;;;;;;;2.75;1.52;;;21.20;77.80;;;;;;5073575;28;20476;-88
2021/10/15 11:29:58;;;;;;;2.13;1.40;;;21.20;78.40;;;;;;5073671;28;20028;-89
2021/10/15 11:32:40;;;;;;;5.70;2.20;;;21.20;79.10;;;;;;5055382;28;20442;-90
2021/10/15 11:35:15;;;;;;;3.90;2.10;;;;;;;;;;5073646;28;20066;-88
2021/10/15 11:37:41;;;;;;;5.95;1.77;;;21.10;79.00;;;;;;5073602;28;20090;-87
2021/10/15 11:40:34;;;;;;;7.88;1.52;;;21.10;79.10;;;;;;5072799;28;20024;-89
2021/10/15 11:43:33;;;;;;;3.55;1.38;;;21.10;79.30;;;;;;5053606;28;20048;-86
2021/10/15 11:46:00;;;;;;;3.38;1.50;;;21.00;78.90;;;;;;5050871;28;20383;-88
2021/10/15 11:48:40;;;;;;;2.53;1.30;;;;;;;;;;5071506;28;20111;-87
2021/10/15 11:51:08;;;;;;;2.85;1.20;;;;;;;;;;5071152;28;20024;-86
2021/10/15 11:53:39;;;;;;;5.90;1.52;;;;;;;;;;5070997;28;20504;-86
2021/10/15 11:56:07;;;;;;;4.05;1.40;;;;;;;;;;5071824;28;20027;-87
2021/10/15 11:58:34;;;;;;;2.60;1.23;;;;;;;;;;5068552;28;20107;-85
2021/10/15 12:01:00;;;;;;;4.22;1.33;;;;;;;;;;5071502;28;20484;-85
2021/10/15 12:03:26;;;;;;;5.35;1.90;;;;;;;;;;5053253;28;20020;-87
2021/10/15 12:05:53;;;;;;;3.97;1.60;;;;;;;;;;5069095;28;20508;-86
2021/10/15 12:08:19;;;;;;;3.80;1.00;;;;;;;;;;5071784;28;20032;-88
2021/10/15 12:10:45;;;;;;;2.72;0.82;;;;;;;;;;5071438;28;20016;-87
2021/10/15 12:13:11;;;;;;;2.30;1.20;;;;;;;;;;5071053;28;20510;-88
2021/10/15 12:15:37;;;;;;;3.63;1.10;;;;;;;;;;5071649;28;20101;-88
2021/10/15 12:18:09;;;;;;;2.58;1.17;;;;;;;;;;5072746;28;20090;-88
2021/10/15 12:20:36;;;;;;;2.50;1.02;;;;;;;;;;5070767;28;20404;-87
2021/10/15 12:23:05;;;;;;;2.00;1.08;;;;;;;;;;5053184;28;20480;-86
2021/10/15 12:25:32;;;;;;;2.75;1.13;;;;;;;;;;5070669;28;20025;-87
2021/10/15 12:27:58;;;;;;;2.58;0.98;;;;;;;;;;5054552;28;20039;-87
2021/10/15 12:30:25;;;;;;;2.33;0.95;;;;;;;;;;5073995;28;20408;-85
2021/10/15 12:32:52;;;;;;;2.30;1.00;;;;;;;;;;5071028;28;20395;-86
2021/10/15 12:35:18;;;;;;;2.95;1.10;;;;;;;;;;5072025;28;20484;-87
2021/10/15 12:37:59;;;;;;;2.90;1.10;;;;;;;;;;5053395;28;20044;-85
2021/10/15 12:40:28;;;;;;;5.30;1.27;;;;;;;;;;5068298;28;20772;-84
2021/10/15 12:43:06;;;;;;;2.28;1.20;;;;;;;;;;5071792;28;20388;-86
2021/10/15 12:45:33;;;;;;;1.70;0.80;;;;;;;;;;5074442;28;20517;-80
2021/10/15 12:48:02;;;;;;;2.08;1.02;;;;;;;;;;5070722;28;20021;-87
2021/10/15 12:50:30;;;;;;;2.60;1.40;;;;;;;;;;5052852;28;20381;-87
2021/10/15 12:52:56;;;;;;;2.20;1.20;;;;;;;;;;5071849;28;20020;-86
2021/10/15 12:55:27;;;;;;;2.50;1.23;;;;;;;;;;5077233;28;20043;-86
2021/10/15 12:58:02;;;;;;;2.70;1.55;;;;;;;;;;5071972;28;20040;-85
2021/10/15 13:00:28;;;;;;;3.22;1.02;;;;;;;;;;5051756;28;20548;-86
2021/10/15 13:03:02;;;;;;;3.35;1.30;;;;;;;;;;5051775;28;20040;-87
2021/10/15 13:05:28;;;;;;;2.40;1.15;;;;;;;;;;5051837;28;20021;-86
2021/10/15 13:07:54;;;;;;;3.38;1.20;;;;;;;;;;5062346;28;20047;-85
2021/10/15 13:10:21;;;;;;;2.53;0.90;;;;;;;;;;5071034;28;20020;-86
2021/10/15 13:12:48;;;;;;;2.53;1.00;;;;;;;;;;5071600;28;20056;-88
2021/10/15 13:15:15;;;;;;;1.65;0.98;;;;;;;;;;5070787;28;20033;-87